createdAt,value
2022-08-14T00:01:54.584Z,2.80
2022-08-14T00:04:34.272Z,3.05
2022-08-14T00:07:07.119Z,2.70
2022-08-14T00:09:39.941Z,2.78
2022-08-14T00:12:24.314Z,2.70
2022-08-14T00:14:54.874Z,2.88
2022-08-14T00:17:22.600Z,3.30
2022-08-14T00:19:49.126Z,3.20
2022-08-14T00:22:44.143Z,2.35
2022-08-14T00:25:07.631Z,3.00
2022-08-14T00:27:37.617Z,3.00
2022-08-14T00:30:10.702Z,3.08
2022-08-14T00:32:56.229Z,2.88
2022-08-14T00:35:25.931Z,3.25
2022-08-14T00:38:10.245Z,2.80
2022-08-14T00:40:36.948Z,3.08
2022-08-14T00:43:03.894Z,3.17
2022-08-14T00:45:31.243Z,3.00
2022-08-14T00:48:00.008Z,2.60
2022-08-14T00:50:31.083Z,2.40
2022-08-14T00:53:02.595Z,2.60
2022-08-14T00:55:30.270Z,3.05
2022-08-14T00:58:17.733Z,2.67
2022-08-14T01:00:51.055Z,3.15
2022-08-14T01:03:20.222Z,2.83
2022-08-14T01:05:51.573Z,3.20
2022-08-14T01:08:51.237Z,2.72
2022-08-14T01:11:08.283Z,3.03
2022-08-14T01:13:42.611Z,3.00
2022-08-14T01:16:13.983Z,2.90
2022-08-14T01:19:01.434Z,3.13
2022-08-14T01:21:34.768Z,3.10
2022-08-14T01:24:09.879Z,2.90
2022-08-14T01:26:38.745Z,2.97
2022-08-14T01:29:06.929Z,3.05
2022-08-14T01:35:17.850Z,2.78
2022-08-14T01:37:04.736Z,2.70
2022-08-14T01:39:54.441Z,2.60
2022-08-14T01:42:31.376Z,2.65
2022-08-14T01:45:05.549Z,2.88
2022-08-14T01:47:37.051Z,2.90
2022-08-14T01:50:06.378Z,2.50
2022-08-14T01:52:59.241Z,3.00
2022-08-14T01:55:25.069Z,2.70
2022-08-14T01:58:18.828Z,2.75
2022-08-14T02:00:41.740Z,2.53
2022-08-14T02:03:08.308Z,2.90
2022-08-14T02:05:38.303Z,2.95
2022-08-14T02:08:09.325Z,2.70
2022-08-14T02:10:47.352Z,2.75
2022-08-14T02:13:19.081Z,2.75
2022-08-14T02:15:48.563Z,2.90
2022-08-14T02:18:15.569Z,2.78
2022-08-14T02:20:42.547Z,2.85
2022-08-14T02:23:09.347Z,2.53
2022-08-14T02:25:36.734Z,2.88
2022-08-14T02:28:23.888Z,3.00
2022-08-14T02:30:52.483Z,2.85
2022-08-14T02:33:20.919Z,2.80
2022-08-14T02:35:52.983Z,2.78
2022-08-14T02:38:29.464Z,3.08
2022-08-14T02:40:59.967Z,3.10
2022-08-14T02:43:36.643Z,2.90
2022-08-14T02:46:12.690Z,3.08
2022-08-14T02:49:03.986Z,2.83
2022-08-14T02:51:30.399Z,2.80
2022-08-14T02:53:58.358Z,2.90
2022-08-14T02:56:30.515Z,3.03
2022-08-14T02:59:15.998Z,2.88
2022-08-14T03:01:50.911Z,2.90
2022-08-14T03:04:21.763Z,3.13
2022-08-14T03:07:06.551Z,2.80
2022-08-14T03:09:42.280Z,3.13
2022-08-14T03:12:30.954Z,3.03
2022-08-14T03:15:02.470Z,2.95
2022-08-14T03:17:32.115Z,2.90
2022-08-14T03:20:11.304Z,2.80
2022-08-14T03:22:42.021Z,2.95
2022-08-14T03:25:09.926Z,2.70
2022-08-14T03:27:48.004Z,2.85
2022-08-14T03:30:23.710Z,2.90
2022-08-14T03:32:50.275Z,2.70
2022-08-14T03:35:18.212Z,2.70
2022-08-14T03:39:10.691Z,2.55
2022-08-14T03:40:31.326Z,2.88
2022-08-14T03:42:59.003Z,2.70
2022-08-14T03:45:35.358Z,3.00
2022-08-14T03:48:29.474Z,3.25
2022-08-14T03:50:57.459Z,2.58
2022-08-14T03:53:25.421Z,2.67
2022-08-14T03:55:56.381Z,2.78
2022-08-14T03:58:35.104Z,2.88
2022-08-14T04:01:04.273Z,3.03
2022-08-14T04:03:32.929Z,3.03
2022-08-14T04:06:01.196Z,2.63
2022-08-14T04:08:30.632Z,3.10
2022-08-14T04:10:58.513Z,2.97
2022-08-14T04:13:27.907Z,3.15
2022-08-14T04:16:02.284Z,2.70
2022-08-14T04:18:32.296Z,2.90
2022-08-14T04:21:01.107Z,2.55
2022-08-14T04:23:29.899Z,2.60
2022-08-14T04:26:08.682Z,2.80
2022-08-14T04:29:08.385Z,2.90
2022-08-14T04:32:57.387Z,2.80
2022-08-14T04:34:20.782Z,2.70
2022-08-14T04:37:08.924Z,2.60
2022-08-14T04:39:56.576Z,2.90
2022-08-14T04:42:47.088Z,3.13
2022-08-14T04:45:17.835Z,3.00
2022-08-14T04:48:03.414Z,2.90
2022-08-14T04:50:33.844Z,3.35
2022-08-14T04:53:13.868Z,3.05
2022-08-14T04:55:51.395Z,2.78
2022-08-14T04:58:33.038Z,2.75
2022-08-14T05:01:02.117Z,2.63
2022-08-14T05:03:31.397Z,2.90
2022-08-14T05:06:00.596Z,2.95
2022-08-14T05:08:31.963Z,3.22
2022-08-14T05:11:15.875Z,2.92
2022-08-14T05:16:31.114Z,2.70
2022-08-14T05:19:25.052Z,2.83
2022-08-14T05:21:57.478Z,2.97
2022-08-14T05:24:27.506Z,3.00
2022-08-14T05:26:54.215Z,2.60
2022-08-14T05:29:21.878Z,2.80
2022-08-14T05:31:48.900Z,2.78
2022-08-14T05:34:17.244Z,2.97
2022-08-14T05:36:50.669Z,3.00
2022-08-14T05:39:29.926Z,3.20
2022-08-14T05:41:56.792Z,2.90
2022-08-14T05:44:29.195Z,2.83
2022-08-14T05:46:57.140Z,2.95
2022-08-14T05:49:32.746Z,2.50
2022-08-14T05:52:01.917Z,2.78
2022-08-14T05:54:35.695Z,3.25
2022-08-14T05:57:04.812Z,2.58
2022-08-14T05:59:38.825Z,2.90
2022-08-14T06:02:10.190Z,2.90
2022-08-14T06:04:37.928Z,2.63
2022-08-14T06:07:05.405Z,2.65
2022-08-14T06:09:35.818Z,2.70
2022-08-14T06:12:08.557Z,2.60
2022-08-14T06:14:36.067Z,2.58
2022-08-14T06:17:03.798Z,2.53
2022-08-14T06:19:30.454Z,2.80
2022-08-14T06:21:58.321Z,2.50
2022-08-14T06:24:26.214Z,2.80
2022-08-14T06:26:56.897Z,2.67
2022-08-14T06:29:33.408Z,2.50
2022-08-14T06:32:38.051Z,2.60
2022-08-14T06:35:03.967Z,2.85
2022-08-14T06:37:58.629Z,2.38
2022-08-14T06:40:34.245Z,2.53
2022-08-14T06:43:09.418Z,2.72
2022-08-14T06:45:38.662Z,2.30
2022-08-14T06:48:12.675Z,2.35
2022-08-14T06:50:39.708Z,2.22
2022-08-14T06:53:07.314Z,2.90
2022-08-14T06:55:34.447Z,2.58
2022-08-14T06:58:03.787Z,2.83
2022-08-14T07:00:32.679Z,2.33
2022-08-14T07:03:23.004Z,2.60
2022-08-14T07:05:55.979Z,2.30
2022-08-14T07:08:28.846Z,2.50
2022-08-14T07:11:03.380Z,2.30
2022-08-14T07:13:30.991Z,2.30
2022-08-14T07:15:59.014Z,2.28
2022-08-14T07:18:31.386Z,2.35
2022-08-14T07:20:59.630Z,1.90
2022-08-14T07:23:27.178Z,2.72
2022-08-14T07:25:58.325Z,2.30
2022-08-14T07:28:25.655Z,2.25
2022-08-14T07:30:57.678Z,2.10
2022-08-14T07:33:43.583Z,2.15
2022-08-14T07:36:26.984Z,2.30
2022-08-14T07:38:56.652Z,2.42
2022-08-14T07:41:23.431Z,2.35
2022-08-14T07:43:55.674Z,2.13
2022-08-14T07:46:28.333Z,2.30
2022-08-14T07:48:56.945Z,2.40
2022-08-14T07:51:23.981Z,2.20
2022-08-14T07:53:56.883Z,2.13
2022-08-14T07:56:46.832Z,2.15
2022-08-14T07:59:11.059Z,2.30
2022-08-14T08:01:40.090Z,2.22
2022-08-14T08:04:24.192Z,2.78
2022-08-14T08:06:52.437Z,2.25
2022-08-14T08:09:23.857Z,2.30
2022-08-14T08:11:54.601Z,2.15
2022-08-14T08:14:25.285Z,2.17
2022-08-14T08:16:54.152Z,2.40
2022-08-14T08:19:20.804Z,2.20
2022-08-14T08:21:48.095Z,2.40
2022-08-14T08:24:19.894Z,2.30
2022-08-14T08:26:47.866Z,2.38
2022-08-14T08:29:28.322Z,2.25
2022-08-14T08:31:56.504Z,2.53
2022-08-14T08:34:29.348Z,2.20
2022-08-14T08:36:58.305Z,2.30
2022-08-14T08:39:24.871Z,2.40
2022-08-14T08:41:57.384Z,2.50
2022-08-14T08:44:32.318Z,2.25
2022-08-14T08:47:03.680Z,2.25
2022-08-14T08:49:52.649Z,2.30
2022-08-14T08:52:31.157Z,4.28
2022-08-14T08:54:59.712Z,2.20
2022-08-14T08:57:33.355Z,2.58
2022-08-14T09:00:02.186Z,1.95
2022-08-14T09:02:29.485Z,2.38
2022-08-14T09:05:02.466Z,2.50
2022-08-14T09:07:29.006Z,2.47
2022-08-14T09:09:59.860Z,2.35
2022-08-14T09:12:32.146Z,2.22
2022-08-14T09:15:01.390Z,2.40
2022-08-14T09:17:28.436Z,2.00
2022-08-14T09:19:55.753Z,2.10
2022-08-14T09:22:36.017Z,2.28
2022-08-14T09:25:06.957Z,2.38
2022-08-14T09:27:34.876Z,2.30
2022-08-14T09:30:01.700Z,2.17
2022-08-14T09:32:58.982Z,2.35
2022-08-14T09:35:56.668Z,2.00
2022-08-14T09:38:51.404Z,2.20
2022-08-14T09:42:20.410Z,1.92
2022-08-14T09:45:10.663Z,2.30
2022-08-14T09:47:52.187Z,2.45
2022-08-14T09:50:30.206Z,2.50
2022-08-14T09:52:57.455Z,2.28
2022-08-14T09:55:27.804Z,2.20
2022-08-14T09:58:19.219Z,2.40
2022-08-14T10:00:46.624Z,2.25
2022-08-14T10:03:35.296Z,2.35
2022-08-14T10:06:07.244Z,2.40
2022-08-14T10:09:02.248Z,2.20
2022-08-14T10:11:43.395Z,2.20
2022-08-14T10:14:35.104Z,2.30
2022-08-14T10:17:06.882Z,2.30
2022-08-14T10:19:36.402Z,5.47
2022-08-14T10:23:14.855Z,2.17
2022-08-14T10:25:00.518Z,2.30
2022-08-14T10:27:28.147Z,2.27
2022-08-14T10:30:01.657Z,2.08
2022-08-14T10:32:39.940Z,2.40
2022-08-14T10:35:16.566Z,2.17
2022-08-14T10:37:49.610Z,2.33
2022-08-14T10:40:37.456Z,2.30
2022-08-14T10:43:26.516Z,2.40
2022-08-14T10:46:21.936Z,2.33
2022-08-14T10:49:04.005Z,2.00
2022-08-14T10:51:35.257Z,2.20
2022-08-14T10:54:25.994Z,2.25
2022-08-14T10:56:57.513Z,2.05
2022-08-14T10:59:30.850Z,2.03
2022-08-14T11:02:03.022Z,1.98
2022-08-14T11:04:30.777Z,2.22
2022-08-14T11:06:58.383Z,2.30
2022-08-14T11:09:26.084Z,2.10
2022-08-14T11:12:33.943Z,2.30
2022-08-14T11:15:02.543Z,1.98
2022-08-14T11:17:32.148Z,2.10
2022-08-14T11:20:02.636Z,2.30
2022-08-14T11:22:55.766Z,2.67
2022-08-14T11:25:20.426Z,2.20
2022-08-14T11:27:49.190Z,2.20
2022-08-14T11:30:51.368Z,2.20
2022-08-14T11:33:07.539Z,2.13
2022-08-14T11:35:47.444Z,2.00
2022-08-14T11:38:14.738Z,2.15
2022-08-14T11:40:47.210Z,2.50
2022-08-14T11:43:15.286Z,2.10
2022-08-14T11:45:47.990Z,2.22
2022-08-14T11:49:03.083Z,2.30
2022-08-14T11:51:24.106Z,2.05
2022-08-14T11:53:55.783Z,2.17
2022-08-14T11:56:25.520Z,2.20
2022-08-14T11:58:53.963Z,2.03
2022-08-14T12:01:29.376Z,2.03
2022-08-14T12:04:32.322Z,1.90
2022-08-14T12:06:58.554Z,2.08
2022-08-14T12:09:33.424Z,2.20
2022-08-14T12:12:01.496Z,1.88
2022-08-14T12:14:30.778Z,2.53
2022-08-14T12:17:12.454Z,2.00
2022-08-14T12:19:56.721Z,2.20
2022-08-14T12:22:38.267Z,2.22
2022-08-14T12:25:11.350Z,2.45
2022-08-14T12:30:48.666Z,2.15
2022-08-14T12:33:30.679Z,2.20
2022-08-14T12:36:04.421Z,2.20
2022-08-14T12:38:41.236Z,2.08
2022-08-14T12:41:21.252Z,2.20
2022-08-14T12:43:56.852Z,2.50
2022-08-14T12:46:37.790Z,2.10
2022-08-14T12:49:22.949Z,2.13
2022-08-14T12:51:57.533Z,2.35
2022-08-14T12:54:28.067Z,2.17
2022-08-14T12:57:04.563Z,2.25
2022-08-14T12:59:37.016Z,2.30
2022-08-14T13:02:29.881Z,2.40
2022-08-14T13:04:57.990Z,2.05
2022-08-14T13:07:32.046Z,2.60
2022-08-14T13:09:58.787Z,1.98
2022-08-14T13:12:33.158Z,1.80
2022-08-14T13:15:08.998Z,2.50
2022-08-14T13:17:51.053Z,2.38
2022-08-14T13:20:24.322Z,2.15
2022-08-14T13:22:54.415Z,2.35
2022-08-14T13:27:57.759Z,4.00
2022-08-14T13:30:26.426Z,3.00
2022-08-14T13:32:54.855Z,2.60
2022-08-14T13:35:25.211Z,2.10
2022-08-14T13:37:53.472Z,2.35
2022-08-14T13:40:26.729Z,2.10
2022-08-14T13:42:56.836Z,2.40
2022-08-14T13:45:59.246Z,2.20
2022-08-14T13:48:27.711Z,1.98
2022-08-14T13:50:59.278Z,2.40
2022-08-14T13:53:33.245Z,2.00
2022-08-14T13:56:01.518Z,2.20
2022-08-14T13:58:34.617Z,2.22
2022-08-14T14:01:04.365Z,1.92
2022-08-14T14:03:35.063Z,2.08
2022-08-14T14:06:02.628Z,2.10
2022-08-14T14:08:46.748Z,3.05
2022-08-14T14:11:16.836Z,2.28
2022-08-14T14:13:48.257Z,2.20
2022-08-14T14:16:26.637Z,2.40
2022-08-14T14:19:09.030Z,2.38
2022-08-14T14:21:37.504Z,2.10
2022-08-14T14:24:05.516Z,2.10
2022-08-14T14:26:35.878Z,2.40
2022-08-14T14:29:03.598Z,2.20
2022-08-14T14:31:31.204Z,2.30
2022-08-14T14:34:01.243Z,2.30
2022-08-14T14:36:40.633Z,2.25
2022-08-14T14:39:07.973Z,2.00
2022-08-14T14:41:44.067Z,2.10
2022-08-14T14:44:13.706Z,2.20
2022-08-14T14:46:44.539Z,2.03
2022-08-14T14:49:14.960Z,2.05
2022-08-14T14:51:46.645Z,2.20
2022-08-14T14:54:31.810Z,2.15
2022-08-14T14:57:02.528Z,2.20
2022-08-14T14:59:33.538Z,2.13
2022-08-14T15:02:07.862Z,2.05
2022-08-14T15:04:43.659Z,2.28
2022-08-14T15:07:10.719Z,2.25
2022-08-14T15:09:39.486Z,2.20
2022-08-14T15:12:34.594Z,2.30
2022-08-14T15:14:58.189Z,2.05
2022-08-14T15:17:41.178Z,2.17
2022-08-14T15:20:17.387Z,1.83
2022-08-14T15:22:56.715Z,2.20
2022-08-14T15:25:23.292Z,2.38
2022-08-14T15:27:51.159Z,2.03
2022-08-14T15:30:23.978Z,2.45
2022-08-14T15:32:53.163Z,2.10
2022-08-14T15:35:22.417Z,2.40
2022-08-14T15:37:55.952Z,2.45
2022-08-14T15:40:23.508Z,2.10
2022-08-14T15:42:50.205Z,2.30
2022-08-14T15:45:17.312Z,2.50
2022-08-14T15:47:44.056Z,2.20
2022-08-14T15:50:12.152Z,2.20
2022-08-14T15:52:42.936Z,1.95
2022-08-14T15:55:14.468Z,2.13
2022-08-14T15:58:02.448Z,2.30
2022-08-14T16:00:49.949Z,2.00
2022-08-14T16:03:27.280Z,2.20
2022-08-14T16:06:10.985Z,2.33
2022-08-14T16:08:43.901Z,2.30
2022-08-14T16:11:11.416Z,2.40
2022-08-14T16:13:44.255Z,2.50
2022-08-14T16:16:49.205Z,2.22
2022-08-14T16:19:18.300Z,2.40
2022-08-14T16:22:01.474Z,2.47
2022-08-14T16:24:33.373Z,2.70
2022-08-14T16:27:01.413Z,2.80
2022-08-14T16:29:31.075Z,2.78
2022-08-14T16:32:01.588Z,2.70
2022-08-14T16:34:47.198Z,2.55
2022-08-14T16:37:19.147Z,2.80
2022-08-14T16:39:47.486Z,3.20
2022-08-14T16:42:39.153Z,3.33
2022-08-14T16:45:02.228Z,3.00
2022-08-14T16:47:34.873Z,2.90
2022-08-14T16:50:08.312Z,2.95
2022-08-14T16:52:54.450Z,2.83
2022-08-14T16:55:22.398Z,2.88
2022-08-14T16:57:58.646Z,2.95
2022-08-14T17:00:43.205Z,2.72
2022-08-14T17:03:12.534Z,3.53
2022-08-14T17:05:43.051Z,3.10
2022-08-14T17:08:41.496Z,2.88
2022-08-14T17:11:00.254Z,3.00
2022-08-14T17:13:47.624Z,2.83
2022-08-14T17:16:24.575Z,3.03
2022-08-14T17:19:00.816Z,2.63
2022-08-14T17:21:31.761Z,2.70
2022-08-14T17:24:56.697Z,3.13
2022-08-14T17:26:55.218Z,2.83
2022-08-14T17:29:34.893Z,3.03
2022-08-14T17:32:19.292Z,2.92
2022-08-14T17:34:57.686Z,2.95
2022-08-14T17:37:34.217Z,3.00
2022-08-14T17:40:15.397Z,3.03
2022-08-14T17:42:55.587Z,3.20
2022-08-14T17:45:41.179Z,3.35
2022-08-14T17:49:16.136Z,3.08
2022-08-14T17:51:24.036Z,3.25
2022-08-14T17:54:02.735Z,2.95
2022-08-14T17:56:32.701Z,2.85
2022-08-14T17:59:05.329Z,3.22
2022-08-14T18:01:36.025Z,3.53
2022-08-14T18:04:20.124Z,3.42
2022-08-14T18:06:58.531Z,3.40
2022-08-14T18:09:57.056Z,3.15
2022-08-14T18:12:36.840Z,3.20
2022-08-14T18:15:16.431Z,3.13
2022-08-14T18:17:53.291Z,3.30
2022-08-14T18:21:42.511Z,3.53
2022-08-14T18:23:13.634Z,3.35
2022-08-14T18:25:54.525Z,3.78
2022-08-14T18:28:51.375Z,3.83
2022-08-14T18:31:21.215Z,3.45
2022-08-14T18:33:54.980Z,3.30
2022-08-14T18:37:16.650Z,3.60
2022-08-14T18:40:02.307Z,3.40
2022-08-14T18:42:33.302Z,3.53
2022-08-14T18:45:01.659Z,4.10
2022-08-14T18:47:56.616Z,3.28
2022-08-14T18:50:30.953Z,3.30
2022-08-14T18:53:10.612Z,3.58
2022-08-14T18:55:37.704Z,3.70
2022-08-14T18:58:26.490Z,3.28
2022-08-14T19:00:58.965Z,3.40
2022-08-14T19:03:36.338Z,3.78
2022-08-14T19:06:10.244Z,3.47
2022-08-14T19:08:41.439Z,3.95
2022-08-14T19:11:39.624Z,3.90
2022-08-14T19:14:07.924Z,3.70
2022-08-14T19:16:43.139Z,3.50
2022-08-14T19:19:15.369Z,3.63
2022-08-14T19:21:55.901Z,3.75
2022-08-14T19:24:44.227Z,4.03
2022-08-14T19:27:24.781Z,3.67
2022-08-14T19:30:20.499Z,3.65
2022-08-14T19:32:55.735Z,3.60
2022-08-14T19:35:49.982Z,3.83
2022-08-14T19:38:46.306Z,5.00
2022-08-14T19:41:19.332Z,3.67
2022-08-14T19:43:55.323Z,3.60
2022-08-14T19:46:37.805Z,3.60
2022-08-14T19:49:06.503Z,3.50
2022-08-14T19:51:41.271Z,3.90
2022-08-14T19:54:13.632Z,3.83
2022-08-14T19:56:45.742Z,4.20
2022-08-14T19:59:18.338Z,3.58
2022-08-14T20:01:49.649Z,3.80
2022-08-14T20:04:45.880Z,3.60
2022-08-14T20:07:59.936Z,3.78
2022-08-14T20:11:12.582Z,3.55
2022-08-14T20:13:32.200Z,3.60
2022-08-14T20:16:12.045Z,3.65
2022-08-14T20:18:50.735Z,3.50
2022-08-14T20:21:18.541Z,3.90
2022-08-14T20:23:47.931Z,3.80
2022-08-14T20:26:30.724Z,3.80
2022-08-14T20:29:04.532Z,3.83
2022-08-14T20:31:36.613Z,4.07
2022-08-14T20:34:18.933Z,3.70
2022-08-14T20:37:10.130Z,3.80
2022-08-14T20:39:54.397Z,3.75
2022-08-14T20:42:43.354Z,3.47
2022-08-14T20:45:21.469Z,4.10
2022-08-14T20:47:56.438Z,3.70
2022-08-14T20:50:28.740Z,3.90
2022-08-14T20:53:00.978Z,3.53
2022-08-14T20:55:41.581Z,3.72
2022-08-14T20:58:41.795Z,4.00
2022-08-14T21:01:13.535Z,3.92
2022-08-14T21:03:58.048Z,4.15
2022-08-14T21:07:23.967Z,4.15
2022-08-14T21:10:04.566Z,3.80
2022-08-14T21:12:34.457Z,4.35
2022-08-14T21:14:56.573Z,4.03
2022-08-14T21:17:25.243Z,3.70
2022-08-14T21:19:53.298Z,4.65
2022-08-14T21:22:19.851Z,3.97
2022-08-14T21:24:47.374Z,3.50
2022-08-14T21:27:19.978Z,3.72
2022-08-14T21:29:53.978Z,4.03
2022-08-14T21:32:36.487Z,3.45
2022-08-14T21:35:13.939Z,3.70
2022-08-14T21:37:46.010Z,3.67
2022-08-14T21:40:31.714Z,3.97
2022-08-14T21:43:04.237Z,3.60
2022-08-14T21:45:31.809Z,3.75
2022-08-14T21:48:10.722Z,3.88
2022-08-14T21:51:00.401Z,3.85
2022-08-14T21:53:30.994Z,3.83
2022-08-14T21:55:58.075Z,3.28
2022-08-14T21:58:51.746Z,3.92
2022-08-14T22:01:13.208Z,3.80
2022-08-14T22:03:45.063Z,3.60
2022-08-14T22:06:17.411Z,3.67
2022-08-14T22:08:46.578Z,3.60
2022-08-14T22:11:20.327Z,3.40
2022-08-14T22:13:48.938Z,3.40
2022-08-14T22:17:01.779Z,3.22
2022-08-14T22:19:04.834Z,4.05
2022-08-14T22:21:38.109Z,3.83
2022-08-14T22:24:11.781Z,4.40
2022-08-14T22:26:43.062Z,3.90
2022-08-14T22:29:11.675Z,3.75
2022-08-14T22:31:41.341Z,4.00
2022-08-14T22:34:11.945Z,3.70
2022-08-14T22:36:48.597Z,3.50
2022-08-14T22:40:17.666Z,3.53
2022-08-14T22:42:20.982Z,3.60
2022-08-14T22:44:49.958Z,3.60
2022-08-14T22:47:16.526Z,3.38
2022-08-14T22:50:30.726Z,3.78
2022-08-14T22:52:31.661Z,3.35
2022-08-14T22:55:00.540Z,3.25
2022-08-14T22:57:37.278Z,3.15
2022-08-14T23:00:13.426Z,2.78
2022-08-14T23:02:41.828Z,3.08
2022-08-14T23:05:12.893Z,2.95
2022-08-14T23:08:58.331Z,2.83
2022-08-14T23:10:33.480Z,2.75
2022-08-14T23:13:02.248Z,2.97
2022-08-14T23:15:30.347Z,3.25
2022-08-14T23:17:57.504Z,3.25
2022-08-14T23:20:29.562Z,3.28
2022-08-14T23:22:57.902Z,3.55
2022-08-14T23:25:53.163Z,3.47
2022-08-14T23:28:33.282Z,3.72
2022-08-14T23:31:01.911Z,3.70
2022-08-14T23:33:28.690Z,3.80
2022-08-14T23:35:59.107Z,3.70
2022-08-14T23:38:30.452Z,3.85
2022-08-14T23:43:28.362Z,3.53
2022-08-14T23:45:58.904Z,3.17
2022-08-14T23:48:28.178Z,3.30
2022-08-14T23:50:55.955Z,3.25
2022-08-14T23:53:28.496Z,3.05
2022-08-14T23:56:19.619Z,3.70
2022-08-14T23:58:57.656Z,3.60
